createdAt,value
2019-02-06T00:00:44.290Z,-0.44
2019-02-06T00:01:49.504Z,-0.36
2019-02-06T00:02:52.941Z,-0.38
2019-02-06T00:03:56.828Z,-0.35
2019-02-06T00:05:00.347Z,-0.42
2019-02-06T00:06:04.613Z,-0.67
2019-02-06T00:07:08.245Z,-0.68
2019-02-06T00:08:11.789Z,-0.71
2019-02-06T00:09:16.534Z,-0.53
2019-02-06T00:10:20.206Z,-0.51
2019-02-06T00:11:23.731Z,-0.54
2019-02-06T00:12:27.164Z,-0.44
2019-02-06T00:13:30.840Z,-0.41
2019-02-06T00:14:34.322Z,-0.39
2019-02-06T00:15:37.943Z,-0.53
2019-02-06T00:16:41.795Z,-0.57
2019-02-06T00:17:45.614Z,-0.49
2019-02-06T00:18:49.127Z,-0.48
2019-02-06T00:19:52.541Z,-0.40
2019-02-06T00:20:56.001Z,-0.43
2019-02-06T00:21:59.575Z,-0.46
2019-02-06T00:23:03.163Z,-0.44
2019-02-06T00:24:06.733Z,-0.77
2019-02-06T00:25:10.306Z,-0.46
2019-02-06T00:26:13.755Z,-0.53
2019-02-06T00:27:17.260Z,-0.47
2019-02-06T00:28:20.766Z,-0.42
2019-02-06T00:29:24.485Z,-0.40
2019-02-06T00:30:28.015Z,-0.50
2019-02-06T00:31:31.461Z,-0.54
2019-02-06T00:32:34.902Z,-0.51
2019-02-06T00:33:38.433Z,-0.48
2019-02-06T00:34:41.886Z,-0.50
2019-02-06T00:35:45.481Z,-0.51
2019-02-06T00:36:49.056Z,-0.57
2019-02-06T00:37:52.585Z,-0.56
2019-02-06T00:38:56.180Z,-0.61
2019-02-06T00:39:59.676Z,-0.69
2019-02-06T00:41:03.135Z,-0.62
2019-02-06T00:42:06.706Z,-0.61
2019-02-06T00:43:10.557Z,-0.54
2019-02-06T00:44:14.019Z,-0.41
2019-02-06T00:45:17.503Z,-0.33
2019-02-06T00:46:20.955Z,-0.35
2019-02-06T00:47:24.410Z,-0.41
2019-02-06T00:48:27.931Z,-0.47
2019-02-06T00:49:31.369Z,-0.47
2019-02-06T00:50:34.876Z,-0.51
2019-02-06T00:51:38.468Z,-0.46
2019-02-06T00:52:42.048Z,-0.48
2019-02-06T00:53:45.567Z,-0.44
2019-02-06T00:54:49.019Z,-0.51
2019-02-06T00:55:52.519Z,-0.55
2019-02-06T00:56:56.251Z,-0.55
2019-02-06T00:57:59.759Z,-0.47
2019-02-06T00:59:03.372Z,-0.44
2019-02-06T01:00:14.306Z,-0.47
2019-02-06T01:01:17.743Z,-0.62
2019-02-06T01:02:21.266Z,-0.69
2019-02-06T01:03:24.767Z,-0.63
2019-02-06T01:04:28.289Z,-0.60
2019-02-06T01:05:38.612Z,-0.57
2019-02-06T01:06:37.161Z,-0.55
2019-02-06T01:07:40.737Z,-0.56
2019-02-06T01:08:44.434Z,-0.51
2019-02-06T01:09:48.008Z,-0.66
2019-02-06T01:10:51.597Z,-0.68
2019-02-06T01:11:55.523Z,-0.64
2019-02-06T01:12:59.056Z,-0.70
2019-02-06T01:14:02.569Z,-0.68
2019-02-06T01:15:07.252Z,-0.62
2019-02-06T01:16:10.753Z,-0.59
2019-02-06T01:17:14.358Z,-0.55
2019-02-06T01:18:17.797Z,-0.50
2019-02-06T01:19:21.296Z,-0.51
2019-02-06T01:20:24.729Z,-0.60
2019-02-06T01:21:28.254Z,-0.60
2019-02-06T01:22:31.795Z,-0.64
2019-02-06T01:23:35.300Z,-0.64
2019-02-06T01:24:39.040Z,-0.71
2019-02-06T01:25:42.661Z,-0.71
2019-02-06T01:26:46.116Z,-0.69
2019-02-06T01:27:49.572Z,-0.76
2019-02-06T01:28:53.076Z,-0.88
2019-02-06T01:29:56.525Z,-0.87
2019-02-06T01:31:01.678Z,-0.86
2019-02-06T01:32:05.285Z,-0.86
2019-02-06T01:33:08.886Z,-0.89
2019-02-06T01:34:12.457Z,-0.80
2019-02-06T01:35:16.025Z,-0.75
2019-02-06T01:36:19.490Z,-0.77
2019-02-06T01:37:23.071Z,-0.81
2019-02-06T01:38:26.789Z,-0.81
2019-02-06T01:39:30.277Z,-0.81
2019-02-06T01:40:33.708Z,-0.74
2019-02-06T01:41:37.203Z,-0.69
2019-02-06T01:42:40.896Z,-0.76
2019-02-06T01:43:44.453Z,-0.86
2019-02-06T01:44:47.892Z,-0.79
2019-02-06T01:45:51.424Z,-0.78
2019-02-06T01:46:54.986Z,-0.72
2019-02-06T01:47:58.390Z,-0.77
2019-02-06T01:49:01.823Z,-0.78
2019-02-06T01:50:09.874Z,-0.78
2019-02-06T01:51:13.328Z,-0.79
2019-02-06T01:52:17.113Z,-0.85
2019-02-06T01:53:20.646Z,-0.80
2019-02-06T01:54:24.147Z,-0.81
2019-02-06T01:55:27.651Z,-0.78
2019-02-06T01:56:31.151Z,-0.77
2019-02-06T01:57:34.597Z,-0.76
2019-02-06T01:58:38.064Z,-0.77
2019-02-06T01:59:41.589Z,-0.83
2019-02-06T02:00:45.136Z,-0.84
2019-02-06T02:01:48.703Z,-0.86
2019-02-06T02:02:52.389Z,-0.88
2019-02-06T02:03:56.012Z,-0.92
2019-02-06T02:04:59.853Z,-0.86
2019-02-06T02:06:03.595Z,-0.80
2019-02-06T02:07:07.098Z,-0.73
2019-02-06T02:08:10.680Z,-0.91
2019-02-06T02:09:15.853Z,-1.00
2019-02-06T02:10:20.624Z,-1.03
2019-02-06T02:11:24.125Z,-1.06
2019-02-06T02:12:27.586Z,-0.96
2019-02-06T02:13:31.171Z,-0.87
2019-02-06T02:14:34.686Z,-0.84
2019-02-06T02:15:38.219Z,-0.85
2019-02-06T02:16:41.719Z,-0.87
2019-02-06T02:17:45.303Z,-0.87
2019-02-06T02:18:49.254Z,-0.81
2019-02-06T02:19:52.878Z,-0.74
2019-02-06T02:20:56.339Z,-0.70
2019-02-06T02:21:59.776Z,-0.73
2019-02-06T02:23:03.352Z,-0.77
2019-02-06T02:24:06.856Z,-0.83
2019-02-06T02:25:10.453Z,-1.03
2019-02-06T02:26:13.928Z,-1.21
2019-02-06T02:27:17.432Z,-1.21
2019-02-06T02:28:20.866Z,-1.15
2019-02-06T02:29:24.381Z,-1.01
2019-02-06T02:30:38.447Z,-0.99
2019-02-06T02:31:41.861Z,-1.08
2019-02-06T02:32:45.386Z,-1.04
2019-02-06T02:33:48.804Z,-1.03
2019-02-06T02:34:52.419Z,-0.97
2019-02-06T02:35:55.949Z,-0.89
2019-02-06T02:36:59.390Z,-0.91
2019-02-06T02:38:02.863Z,-0.93
2019-02-06T02:39:07.333Z,-0.89
2019-02-06T02:40:12.109Z,-0.87
2019-02-06T02:41:15.572Z,-0.89
2019-02-06T02:42:19.032Z,-0.89
2019-02-06T02:43:22.471Z,-0.97
2019-02-06T02:44:25.978Z,-1.08
2019-02-06T02:45:29.479Z,-1.16
2019-02-06T02:46:33.011Z,-1.32
2019-02-06T02:47:36.531Z,-1.23
2019-02-06T02:48:40.293Z,-1.29
2019-02-06T02:49:43.725Z,-1.28
2019-02-06T02:50:47.302Z,-1.29
2019-02-06T02:51:50.756Z,-1.25
2019-02-06T02:52:54.280Z,-1.26
2019-02-06T02:53:57.720Z,-1.20
2019-02-06T02:55:01.223Z,-1.19
2019-02-06T02:56:04.732Z,-1.17
2019-02-06T02:57:08.228Z,-1.22
2019-02-06T02:58:11.732Z,-1.22
2019-02-06T02:59:15.180Z,-1.23
2019-02-06T03:00:21.717Z,-1.17
2019-02-06T03:01:32.337Z,-1.10
2019-02-06T03:02:39.848Z,-1.18
2019-02-06T03:03:44.982Z,-1.24
2019-02-06T03:04:48.491Z,-1.32
2019-02-06T03:05:52.214Z,-1.40
2019-02-06T03:06:55.734Z,-1.27
2019-02-06T03:07:59.276Z,-1.23
2019-02-06T03:09:02.795Z,-1.18
2019-02-06T03:10:09.540Z,-1.21
2019-02-06T03:11:13.280Z,-1.18
2019-02-06T03:12:16.816Z,-1.20
2019-02-06T03:13:20.422Z,-1.26
2019-02-06T03:14:23.937Z,-1.34
2019-02-06T03:15:27.368Z,-1.52
2019-02-06T03:16:30.877Z,-1.61
2019-02-06T03:17:34.338Z,-1.56
2019-02-06T03:18:37.917Z,-1.46
2019-02-06T03:19:41.838Z,-1.39
2019-02-06T03:20:45.216Z,-1.38
2019-02-06T03:21:48.644Z,-1.39
2019-02-06T03:22:52.234Z,-1.34
2019-02-06T03:23:55.735Z,-1.31
2019-02-06T03:24:59.317Z,-1.32
2019-02-06T03:26:02.820Z,-1.35
2019-02-06T03:27:06.499Z,-1.37
2019-02-06T03:28:10.028Z,-1.35
2019-02-06T03:29:13.470Z,-1.29
2019-02-06T03:30:20.090Z,-1.24
2019-02-06T03:31:23.594Z,-1.21
2019-02-06T03:32:27.036Z,-1.20
2019-02-06T03:33:30.888Z,-1.26
2019-02-06T03:34:34.328Z,-1.30
2019-02-06T03:35:37.760Z,-1.34
2019-02-06T03:36:41.201Z,-1.35
2019-02-06T03:37:44.665Z,-1.27
2019-02-06T03:38:48.187Z,-1.38
2019-02-06T03:39:51.618Z,-1.43
2019-02-06T03:40:55.085Z,-1.52
2019-02-06T03:41:58.655Z,-1.44
2019-02-06T03:43:02.159Z,-1.46
2019-02-06T03:44:05.760Z,-1.47
2019-02-06T03:45:11.652Z,-1.48
2019-02-06T03:46:15.104Z,-1.40
2019-02-06T03:47:18.791Z,-1.34
2019-02-06T03:48:22.301Z,-1.28
2019-02-06T03:49:25.757Z,-1.25
2019-02-06T03:50:29.215Z,-1.24
2019-02-06T03:51:32.651Z,-1.28
2019-02-06T03:52:36.651Z,-1.26
2019-02-06T03:53:40.088Z,-1.28
2019-02-06T03:54:43.618Z,-1.29
2019-02-06T03:55:47.163Z,-1.32
2019-02-06T03:56:50.675Z,-1.32
2019-02-06T03:57:54.104Z,-1.28
2019-02-06T03:58:57.686Z,-1.28
2019-02-06T04:00:01.545Z,-1.28
2019-02-06T04:01:05.246Z,-1.30
2019-02-06T04:02:08.758Z,-1.25
2019-02-06T04:03:12.198Z,-1.21
2019-02-06T04:04:15.631Z,-1.19
2019-02-06T04:05:19.232Z,-1.18
2019-02-06T04:06:22.660Z,-1.20
2019-02-06T04:07:26.143Z,-1.05
2019-02-06T04:08:29.625Z,-0.92
2019-02-06T04:09:33.127Z,-0.85
2019-02-06T04:10:36.580Z,-0.82
2019-02-06T04:11:40.154Z,-0.95
2019-02-06T04:12:43.834Z,-1.03
2019-02-06T04:13:47.810Z,-1.06
2019-02-06T04:14:51.260Z,-1.01
2019-02-06T04:15:54.794Z,-0.98
2019-02-06T04:16:58.306Z,-0.94
2019-02-06T04:18:01.823Z,-1.03
2019-02-06T04:19:05.491Z,-1.03
2019-02-06T04:20:11.440Z,-1.13
2019-02-06T04:21:14.959Z,-1.39
2019-02-06T04:22:18.390Z,-1.41
2019-02-06T04:23:21.835Z,-1.39
2019-02-06T04:24:25.332Z,-1.27
2019-02-06T04:25:28.776Z,-1.40
2019-02-06T04:26:32.314Z,-1.40
2019-02-06T04:27:36.042Z,-1.40
2019-02-06T04:28:39.548Z,-1.31
2019-02-06T04:29:42.986Z,-1.48
2019-02-06T04:30:46.532Z,-1.71
2019-02-06T04:31:50.054Z,-1.69
2019-02-06T04:32:53.565Z,-1.68
2019-02-06T04:33:57.005Z,-1.82
2019-02-06T04:35:00.511Z,-2.00
2019-02-06T04:36:04.410Z,-1.89
2019-02-06T04:37:07.868Z,-1.86
2019-02-06T04:38:11.303Z,-1.81
2019-02-06T04:39:14.757Z,-1.80
2019-02-06T04:40:19.818Z,-1.79
2019-02-06T04:41:23.787Z,-1.92
2019-02-06T04:42:27.263Z,-1.85
2019-02-06T04:43:30.696Z,-1.86
2019-02-06T04:44:34.133Z,-1.72
2019-02-06T04:45:37.644Z,-1.69
2019-02-06T04:46:41.099Z,-1.82
2019-02-06T04:47:44.892Z,-1.93
2019-02-06T04:48:48.405Z,-1.98
2019-02-06T04:49:51.837Z,-1.88
2019-02-06T04:50:55.275Z,-1.85
2019-02-06T04:51:58.811Z,-1.94
2019-02-06T04:53:02.328Z,-1.77
2019-02-06T04:54:06.172Z,-1.64
2019-02-06T04:55:12.444Z,-1.69
2019-02-06T04:56:15.889Z,-1.76
2019-02-06T04:57:19.408Z,-1.77
2019-02-06T04:58:22.955Z,-1.69
2019-02-06T04:59:26.392Z,-1.70
2019-02-06T05:00:29.844Z,-1.64
2019-02-06T05:01:33.347Z,-1.60
2019-02-06T05:02:36.901Z,-1.52
2019-02-06T05:03:40.354Z,-1.48
2019-02-06T05:04:43.869Z,-1.41
2019-02-06T05:05:47.340Z,-1.52
2019-02-06T05:06:50.803Z,-1.51
2019-02-06T05:07:54.725Z,-1.66
2019-02-06T05:08:58.229Z,-1.68
2019-02-06T05:10:01.705Z,-1.64
2019-02-06T05:11:05.215Z,-1.60
2019-02-06T05:12:09.645Z,-1.56
2019-02-06T05:13:13.230Z,-1.58
2019-02-06T05:14:16.728Z,-1.58
2019-02-06T05:15:20.304Z,-1.68
2019-02-06T05:16:23.817Z,-1.75
2019-02-06T05:17:27.251Z,-1.78
2019-02-06T05:18:30.709Z,-1.81
2019-02-06T05:19:34.149Z,-2.09
2019-02-06T05:20:38.966Z,-2.10
2019-02-06T05:21:42.776Z,-2.02
2019-02-06T05:22:46.215Z,-2.03
2019-02-06T05:23:49.669Z,-2.00
2019-02-06T05:24:53.106Z,-2.21
2019-02-06T05:25:56.613Z,-2.24
2019-02-06T05:27:00.044Z,-2.24
2019-02-06T05:28:03.620Z,-2.23
2019-02-06T05:29:07.155Z,-2.37
2019-02-06T05:30:11.954Z,-2.43
2019-02-06T05:31:15.391Z,-2.46
2019-02-06T05:32:18.828Z,-2.33
2019-02-06T05:33:22.429Z,-2.29
2019-02-06T05:34:26.078Z,-2.28
2019-02-06T05:35:29.992Z,-2.23
2019-02-06T05:36:33.402Z,-2.23
2019-02-06T05:37:36.908Z,-2.32
2019-02-06T05:38:40.438Z,-2.33
2019-02-06T05:39:43.967Z,-2.31
2019-02-06T05:40:47.529Z,-2.29
2019-02-06T05:41:51.042Z,-2.35
2019-02-06T05:42:54.549Z,-2.23
2019-02-06T05:43:58.025Z,-2.28
2019-02-06T05:45:01.481Z,-2.30
2019-02-06T05:46:04.987Z,-2.20
2019-02-06T05:47:08.686Z,-2.18
2019-02-06T05:48:12.389Z,-2.18
2019-02-06T05:49:15.837Z,-2.18
2019-02-06T05:50:19.732Z,-2.20
2019-02-06T05:51:23.163Z,-2.11
2019-02-06T05:52:26.591Z,-2.05
2019-02-06T05:53:30.033Z,-2.13
2019-02-06T05:54:33.466Z,-2.28
2019-02-06T05:55:36.990Z,-2.31
2019-02-06T05:56:40.494Z,-2.30
2019-02-06T05:57:44.067Z,-2.40
2019-02-06T05:58:47.522Z,-2.49
2019-02-06T05:59:51.203Z,-2.52
2019-02-06T06:00:55.171Z,-2.64
2019-02-06T06:01:58.634Z,-2.71
2019-02-06T06:03:02.217Z,-2.67
2019-02-06T06:04:05.838Z,-2.74
2019-02-06T06:05:09.396Z,-2.78
2019-02-06T06:06:12.919Z,-2.66
2019-02-06T06:07:16.422Z,-2.65
2019-02-06T06:08:19.975Z,-2.69
2019-02-06T06:09:23.404Z,-2.60
2019-02-06T06:10:26.842Z,-2.55
2019-02-06T06:11:30.298Z,-2.65
2019-02-06T06:12:33.735Z,-2.65
2019-02-06T06:13:37.442Z,-2.67
2019-02-06T06:14:40.939Z,-2.70
2019-02-06T06:15:44.372Z,-2.62
2019-02-06T06:16:47.822Z,-2.59
2019-02-06T06:17:51.348Z,-2.58
2019-02-06T06:18:54.782Z,-2.58
2019-02-06T06:19:58.283Z,-2.68
2019-02-06T06:21:01.722Z,-2.73
2019-02-06T06:22:05.415Z,-2.86
2019-02-06T06:23:08.948Z,-2.88
2019-02-06T06:24:12.382Z,-2.95
2019-02-06T06:25:18.820Z,-2.96
2019-02-06T06:26:22.622Z,-2.92
2019-02-06T06:27:26.142Z,-3.12
2019-02-06T06:28:29.589Z,-3.16
2019-02-06T06:29:33.067Z,-3.17
2019-02-06T06:30:36.492Z,-3.16
2019-02-06T06:31:39.944Z,-3.23
2019-02-06T06:32:43.470Z,-3.23
2019-02-06T06:33:46.938Z,-3.27
2019-02-06T06:34:50.499Z,-3.28
2019-02-06T06:35:53.902Z,-3.31
2019-02-06T06:36:57.363Z,-3.29
2019-02-06T06:38:02.576Z,-3.30
2019-02-06T06:39:07.704Z,-3.21
2019-02-06T06:40:14.156Z,-3.16
2019-02-06T06:41:17.939Z,-3.14
2019-02-06T06:42:24.107Z,-3.01
2019-02-06T06:43:26.639Z,-3.08
2019-02-06T06:44:30.112Z,-3.23
2019-02-06T06:45:33.651Z,-3.18
2019-02-06T06:46:37.093Z,-3.16
2019-02-06T06:47:40.602Z,-3.15
2019-02-06T06:48:44.131Z,-3.21
2019-02-06T06:49:47.641Z,-3.08
2019-02-06T06:50:51.072Z,-3.07
2019-02-06T06:51:54.590Z,-3.13
2019-02-06T06:52:58.021Z,-3.32
2019-02-06T06:54:01.755Z,-3.29
2019-02-06T06:55:08.236Z,-3.26
2019-02-06T06:56:11.666Z,-3.19
2019-02-06T06:57:15.180Z,-3.29
2019-02-06T06:58:18.692Z,-3.24
2019-02-06T06:59:22.210Z,-3.34
2019-02-06T07:00:27.580Z,-3.40
2019-02-06T07:01:31.023Z,-3.36
2019-02-06T07:02:34.617Z,-3.37
2019-02-06T07:03:38.053Z,-3.41
2019-02-06T07:04:41.513Z,-3.30
2019-02-06T07:05:45.051Z,-3.27
2019-02-06T07:06:48.511Z,-3.30
2019-02-06T07:07:52.567Z,-3.28
2019-02-06T07:08:56.225Z,-3.33
2019-02-06T07:09:59.699Z,-3.29
2019-02-06T07:11:03.215Z,-3.39
2019-02-06T07:12:06.733Z,-3.39
2019-02-06T07:13:10.305Z,-3.32
2019-02-06T07:14:13.765Z,-3.28
2019-02-06T07:15:22.797Z,-3.26
2019-02-06T07:16:26.257Z,-3.29
2019-02-06T07:17:29.831Z,-3.29
2019-02-06T07:18:33.270Z,-3.25
2019-02-06T07:19:36.717Z,-3.25
2019-02-06T07:20:40.234Z,-3.30
2019-02-06T07:21:43.839Z,-3.31
2019-02-06T07:22:47.586Z,-3.25
2019-02-06T07:23:51.403Z,-3.21
2019-02-06T07:24:54.915Z,-3.21
2019-02-06T07:25:58.364Z,-3.17
2019-02-06T07:27:01.798Z,-3.23
2019-02-06T07:28:05.382Z,-3.22
2019-02-06T07:29:08.818Z,-3.24
2019-02-06T07:30:18.141Z,-3.31
2019-02-06T07:31:21.681Z,-3.25
2019-02-06T07:32:25.161Z,-3.28
2019-02-06T07:33:28.622Z,-3.20
2019-02-06T07:34:32.065Z,-3.12
2019-02-06T07:35:35.604Z,-3.04
2019-02-06T07:36:39.299Z,-3.00
2019-02-06T07:37:43.063Z,-3.01
2019-02-06T07:38:46.599Z,-3.14
2019-02-06T07:39:50.015Z,-3.11
2019-02-06T07:40:53.507Z,-3.02
2019-02-06T07:41:57.266Z,-2.95
2019-02-06T07:43:00.771Z,-2.87
2019-02-06T07:44:04.326Z,-2.87
2019-02-06T07:45:10.795Z,-2.82
2019-02-06T07:46:14.223Z,-2.84
2019-02-06T07:47:17.692Z,-2.82
2019-02-06T07:48:21.282Z,-2.81
2019-02-06T07:49:24.818Z,-2.80
2019-02-06T07:50:33.318Z,-2.79
2019-02-06T07:51:36.845Z,-2.92
2019-02-06T07:52:40.478Z,-3.08
2019-02-06T07:53:43.912Z,-3.09
2019-02-06T07:54:47.393Z,-3.06
2019-02-06T07:55:50.832Z,-2.96
2019-02-06T07:56:54.281Z,-2.83
2019-02-06T07:57:58.050Z,-2.81
2019-02-06T07:59:01.481Z,-2.86
2019-02-06T08:00:07.507Z,-2.88
2019-02-06T08:01:10.941Z,-2.96
2019-02-06T08:02:14.471Z,-3.07
2019-02-06T08:03:18.037Z,-3.07
2019-02-06T08:04:21.514Z,-3.10
2019-02-06T08:05:25.278Z,-3.08
2019-02-06T08:06:29.119Z,-3.09
2019-02-06T08:07:32.690Z,-3.00
2019-02-06T08:08:36.521Z,-2.94
2019-02-06T08:09:39.975Z,-2.81
2019-02-06T08:10:43.547Z,-2.82
2019-02-06T08:11:46.987Z,-2.80
2019-02-06T08:12:50.708Z,-2.91
2019-02-06T08:13:54.282Z,-2.98
2019-02-06T08:14:57.962Z,-2.92
2019-02-06T08:16:01.396Z,-2.92
2019-02-06T08:17:04.982Z,-2.85
2019-02-06T08:18:10.723Z,-2.79
2019-02-06T08:19:13.921Z,-2.70
2019-02-06T08:20:19.820Z,-2.60
2019-02-06T08:21:23.258Z,-2.53
2019-02-06T08:22:26.759Z,-2.43
2019-02-06T08:23:30.290Z,-2.41
2019-02-06T08:24:33.745Z,-2.40
2019-02-06T08:25:37.191Z,-2.35
2019-02-06T08:26:40.697Z,-2.31
2019-02-06T08:27:44.223Z,-2.30
2019-02-06T08:28:47.745Z,-2.34
2019-02-06T08:29:51.273Z,-2.34
2019-02-06T08:30:54.759Z,-2.48
2019-02-06T08:31:58.297Z,-2.57
2019-02-06T08:33:01.941Z,-2.59
2019-02-06T08:34:05.912Z,-2.50
2019-02-06T08:35:10.876Z,-2.45
2019-02-06T08:36:14.383Z,-2.47
2019-02-06T08:37:17.954Z,-2.37
2019-02-06T08:38:21.389Z,-2.37
2019-02-06T08:39:24.882Z,-2.29
2019-02-06T08:40:32.207Z,-2.28
2019-02-06T08:41:35.643Z,-2.30
2019-02-06T08:42:39.073Z,-2.29
2019-02-06T08:43:42.581Z,-2.23
2019-02-06T08:44:46.129Z,-2.13
2019-02-06T08:45:49.568Z,-2.04
2019-02-06T08:46:53.136Z,-2.16
2019-02-06T08:47:56.824Z,-2.04
2019-02-06T08:49:00.539Z,-2.02
2019-02-06T08:50:06.170Z,-2.00
2019-02-06T08:51:09.695Z,-2.01
2019-02-06T08:52:13.202Z,-1.93
2019-02-06T08:53:16.708Z,-1.97
2019-02-06T08:54:20.470Z,-2.18
2019-02-06T08:55:31.824Z,-2.30
2019-02-06T08:56:35.382Z,-2.30
2019-02-06T08:57:39.074Z,-2.11
2019-02-06T08:58:42.646Z,-2.01
2019-02-06T08:59:46.105Z,-1.99
2019-02-06T09:00:49.680Z,-1.98
2019-02-06T09:01:53.212Z,-1.92
2019-02-06T09:02:56.991Z,-1.84
2019-02-06T09:04:00.710Z,-1.90
2019-02-06T09:05:07.626Z,-1.88
2019-02-06T09:06:11.238Z,-1.74
2019-02-06T09:07:14.890Z,-1.67
2019-02-06T09:08:18.465Z,-1.80
2019-02-06T09:09:21.909Z,-1.75
2019-02-06T09:10:27.498Z,-1.66
2019-02-06T09:11:30.930Z,-1.54
2019-02-06T09:12:34.363Z,-1.52
2019-02-06T09:13:38.045Z,-1.54
2019-02-06T09:14:41.544Z,-1.52
2019-02-06T09:15:45.022Z,-1.49
2019-02-06T09:16:48.441Z,-1.45
2019-02-06T09:17:52.123Z,-1.48
2019-02-06T09:18:55.565Z,-1.41
2019-02-06T09:19:59.159Z,-1.32
2019-02-06T09:21:02.665Z,-1.25
2019-02-06T09:22:06.241Z,-1.19
2019-02-06T09:23:09.820Z,-1.15
2019-02-06T09:24:13.282Z,-1.20
2019-02-06T09:25:19.046Z,-1.18
2019-02-06T09:26:22.506Z,-1.22
2019-02-06T09:27:26.023Z,-1.18
2019-02-06T09:28:29.469Z,-1.28
2019-02-06T09:29:32.909Z,-1.26
2019-02-06T09:30:36.568Z,-1.30
2019-02-06T09:31:40.473Z,-1.19
2019-02-06T09:32:43.978Z,-1.17
2019-02-06T09:33:47.417Z,-1.15
2019-02-06T09:34:50.861Z,-1.06
2019-02-06T09:35:54.448Z,-1.04
2019-02-06T09:36:57.981Z,-1.11
2019-02-06T09:38:02.322Z,-1.03
2019-02-06T09:39:11.750Z,-0.91
2019-02-06T09:40:18.655Z,-0.86
2019-02-06T09:41:22.254Z,-0.94
2019-02-06T09:42:25.830Z,-1.00
2019-02-06T09:43:29.276Z,-1.02
2019-02-06T09:44:32.756Z,-1.04
2019-02-06T09:45:36.264Z,-1.07
2019-02-06T09:46:40.058Z,-1.22
2019-02-06T09:47:43.562Z,-1.21
2019-02-06T09:48:47.051Z,-1.03
2019-02-06T09:49:50.562Z,-0.95
2019-02-06T09:50:54.156Z,-0.93
2019-02-06T09:51:57.632Z,-0.83
2019-02-06T09:53:01.226Z,-0.88
2019-02-06T09:54:04.731Z,-0.88
2019-02-06T09:55:08.407Z,-0.82
2019-02-06T09:56:12.005Z,-0.81
2019-02-06T09:57:15.546Z,-0.77
2019-02-06T09:58:18.987Z,-0.78
2019-02-06T09:59:22.598Z,-0.77
2019-02-06T10:00:29.325Z,-0.80
2019-02-06T10:01:32.781Z,-0.79
2019-02-06T10:02:36.293Z,-0.73
2019-02-06T10:03:39.742Z,-0.68
2019-02-06T10:04:43.307Z,-0.67
2019-02-06T10:05:46.834Z,-0.60
2019-02-06T10:06:50.276Z,-0.48
2019-02-06T10:07:53.782Z,-0.40
2019-02-06T10:08:57.249Z,-0.40
2019-02-06T10:10:00.719Z,-0.44
2019-02-06T10:11:04.316Z,-0.49
2019-02-06T10:12:07.824Z,-0.41
2019-02-06T10:13:11.448Z,-0.34
2019-02-06T10:14:14.873Z,-0.27
2019-02-06T10:15:26.815Z,-0.22
2019-02-06T10:16:30.333Z,-0.16
2019-02-06T10:17:36.171Z,-0.09
2019-02-06T10:18:38.940Z,-0.09
2019-02-06T10:19:42.664Z,-0.14
2019-02-06T10:20:48.362Z,-0.14
2019-02-06T10:21:53.740Z,-0.10
2019-02-06T10:22:57.413Z,-0.03
2019-02-06T10:24:00.871Z,-0.06
2019-02-06T10:25:05.549Z,-0.08
2019-02-06T10:26:09.066Z,0.03
2019-02-06T10:27:12.631Z,0.09
2019-02-06T10:28:16.129Z,0.15
2019-02-06T10:29:19.637Z,0.24
2019-02-06T10:30:29.315Z,0.22
2019-02-06T10:31:33.046Z,0.21
2019-02-06T10:32:36.464Z,0.26
2019-02-06T10:33:39.907Z,0.34
2019-02-06T10:34:43.481Z,0.38
2019-02-06T10:35:47.124Z,0.40
2019-02-06T10:36:50.569Z,0.38
2019-02-06T10:37:54.074Z,0.32
2019-02-06T10:38:57.502Z,0.41
2019-02-06T10:40:01.016Z,0.44
2019-02-06T10:41:04.799Z,0.46
2019-02-06T10:42:08.360Z,0.51
2019-02-06T10:43:11.934Z,0.57
2019-02-06T10:44:15.537Z,0.49
2019-02-06T10:45:21.212Z,0.54
2019-02-06T10:46:24.781Z,0.55
2019-02-06T10:47:28.273Z,0.55
2019-02-06T10:48:31.731Z,0.60
2019-02-06T10:49:35.167Z,0.54
2019-02-06T10:50:41.651Z,0.51
2019-02-06T10:51:45.097Z,0.59
2019-02-06T10:52:48.776Z,0.66
2019-02-06T10:53:52.291Z,0.72
2019-02-06T10:54:55.864Z,0.79
2019-02-06T10:55:59.383Z,0.75
2019-02-06T10:57:02.875Z,0.81
2019-02-06T10:58:06.806Z,0.78
2019-02-06T10:59:10.506Z,0.70
2019-02-06T11:00:31.844Z,0.70
2019-02-06T11:01:35.318Z,0.71
2019-02-06T11:02:38.827Z,0.77
2019-02-06T11:03:45.320Z,0.79
2019-02-06T11:04:48.835Z,0.76
2019-02-06T11:05:52.422Z,0.85
2019-02-06T11:06:55.934Z,0.88
2019-02-06T11:07:59.494Z,0.88
2019-02-06T11:09:04.086Z,0.93
2019-02-06T11:10:10.567Z,1.00
2019-02-06T11:11:14.076Z,1.11
2019-02-06T11:12:17.602Z,1.20
2019-02-06T11:13:21.214Z,1.27
2019-02-06T11:14:24.672Z,1.35
2019-02-06T11:15:28.840Z,1.30
2019-02-06T11:16:32.296Z,1.34
2019-02-06T11:17:36.267Z,1.42
2019-02-06T11:18:39.717Z,1.49
2019-02-06T11:19:43.365Z,1.45
2019-02-06T11:20:46.929Z,1.53
2019-02-06T11:21:50.420Z,1.62
2019-02-06T11:22:53.928Z,1.60
2019-02-06T11:23:57.400Z,1.68
2019-02-06T11:25:00.829Z,1.76
2019-02-06T11:26:05.253Z,1.89
2019-02-06T11:27:08.824Z,1.95
2019-02-06T11:28:12.416Z,2.01
2019-02-06T11:29:15.868Z,2.01
2019-02-06T11:30:22.135Z,2.10
2019-02-06T11:31:25.861Z,2.12
2019-02-06T11:32:29.290Z,2.19
2019-02-06T11:33:32.794Z,2.10
2019-02-06T11:34:36.247Z,1.98
2019-02-06T11:35:39.762Z,2.04
2019-02-06T11:36:43.198Z,2.17
2019-02-06T11:37:46.796Z,2.28
2019-02-06T11:38:50.277Z,2.39
2019-02-06T11:39:58.117Z,2.50
2019-02-06T11:40:59.069Z,2.52
2019-02-06T11:42:02.504Z,2.56
2019-02-06T11:43:06.478Z,2.54
2019-02-06T11:44:10.047Z,2.60
2019-02-06T11:45:19.390Z,2.63
2019-02-06T11:46:22.919Z,2.60
2019-02-06T11:47:26.425Z,2.77
2019-02-06T11:48:29.924Z,2.92
2019-02-06T11:49:35.062Z,3.10
2019-02-06T11:50:40.019Z,3.06
2019-02-06T11:51:43.535Z,3.04
2019-02-06T11:52:47.144Z,3.17
2019-02-06T11:53:50.641Z,3.21
2019-02-06T11:54:54.159Z,3.32
2019-02-06T11:55:57.771Z,3.39
2019-02-06T11:57:01.255Z,3.39
2019-02-06T11:58:05.230Z,3.41
2019-02-06T11:59:08.756Z,3.49
2019-02-06T12:00:22.482Z,3.59
2019-02-06T12:01:27.438Z,3.77
2019-02-06T12:02:37.360Z,3.94
2019-02-06T12:03:36.285Z,4.05
2019-02-06T12:04:39.729Z,3.98
2019-02-06T12:05:43.252Z,3.97
2019-02-06T12:06:46.838Z,4.06
2019-02-06T12:07:50.330Z,4.10
2019-02-06T12:08:53.769Z,4.15
2019-02-06T12:10:09.076Z,4.30
2019-02-06T12:11:02.569Z,4.42
2019-02-06T12:12:06.193Z,4.44
2019-02-06T12:13:09.851Z,4.49
2019-02-06T12:14:13.355Z,4.60
2019-02-06T12:15:18.630Z,4.67
2019-02-06T12:16:22.181Z,4.68
2019-02-06T12:17:26.062Z,4.77
2019-02-06T12:18:29.641Z,4.87
2019-02-06T12:19:33.077Z,4.92
2019-02-06T12:20:36.843Z,4.81
2019-02-06T12:21:40.341Z,4.73
2019-02-06T12:22:43.835Z,4.71
2019-02-06T12:23:47.267Z,4.77
2019-02-06T12:24:50.701Z,4.86
2019-02-06T12:25:54.219Z,5.07
2019-02-06T12:26:57.653Z,5.18
2019-02-06T12:28:01.106Z,5.25
2019-02-06T12:29:04.773Z,5.34
2019-02-06T12:30:26.392Z,5.36
2019-02-06T12:31:29.902Z,5.43
2019-02-06T12:32:33.424Z,5.57
2019-02-06T12:33:37.153Z,5.62
2019-02-06T12:34:40.631Z,5.79
2019-02-06T12:35:44.131Z,5.92
2019-02-06T12:36:47.626Z,5.98
2019-02-06T12:37:51.309Z,5.98
2019-02-06T12:38:54.736Z,5.88
2019-02-06T12:39:58.243Z,6.09
2019-02-06T12:41:01.746Z,6.39
2019-02-06T12:42:05.525Z,6.72
2019-02-06T12:43:10.602Z,7.18
2019-02-06T12:44:14.221Z,7.71
2019-02-06T12:45:20.545Z,8.24
2019-02-06T12:46:23.984Z,8.68
2019-02-06T12:47:27.489Z,8.91
2019-02-06T12:48:31.012Z,8.92
2019-02-06T12:49:34.579Z,9.06
2019-02-06T12:50:38.161Z,9.08
2019-02-06T12:51:41.578Z,9.24
2019-02-06T12:52:45.149Z,9.55
2019-02-06T12:53:48.585Z,9.73
2019-02-06T12:54:52.087Z,9.66
2019-02-06T12:55:55.514Z,9.46
2019-02-06T12:56:58.942Z,9.22
2019-02-06T12:58:02.692Z,9.10
2019-02-06T12:59:06.657Z,8.78
2019-02-06T13:00:21.755Z,8.42
2019-02-06T13:01:25.689Z,8.20
2019-02-06T13:02:29.141Z,8.05
2019-02-06T13:03:32.653Z,7.71
2019-02-06T13:04:36.087Z,7.49
2019-02-06T13:05:39.695Z,7.45
2019-02-06T13:06:43.149Z,7.32
2019-02-06T13:07:46.649Z,7.26
2019-02-06T13:08:50.115Z,7.11
2019-02-06T13:09:53.563Z,7.02
2019-02-06T13:10:57.067Z,6.97
2019-02-06T13:12:00.496Z,7.01
2019-02-06T13:13:04.762Z,7.10
2019-02-06T13:14:08.649Z,7.23
2019-02-06T13:15:15.080Z,7.19
2019-02-06T13:16:18.541Z,7.08
2019-02-06T13:17:21.972Z,6.98
2019-02-06T13:18:25.422Z,7.07
2019-02-06T13:19:28.885Z,7.42
2019-02-06T13:20:36.151Z,7.47
2019-02-06T13:21:39.725Z,7.68
2019-02-06T13:22:43.292Z,8.28
2019-02-06T13:23:49.447Z,8.92
2019-02-06T13:24:51.905Z,9.56
2019-02-06T13:25:55.423Z,10.19
2019-02-06T13:26:59.057Z,10.69
2019-02-06T13:28:02.734Z,10.99
2019-02-06T13:29:06.511Z,10.96
2019-02-06T13:30:12.997Z,10.97
2019-02-06T13:31:16.518Z,11.14
2019-02-06T13:32:19.962Z,11.24
2019-02-06T13:33:23.434Z,11.40
2019-02-06T13:34:26.912Z,11.63
2019-02-06T13:35:30.486Z,11.76
2019-02-06T13:36:34.009Z,11.88
2019-02-06T13:37:37.540Z,12.17
2019-02-06T13:38:41.067Z,12.18
2019-02-06T13:39:44.565Z,12.16
2019-02-06T13:40:48.159Z,12.04
2019-02-06T13:41:51.754Z,12.32
2019-02-06T13:42:55.636Z,12.37
2019-02-06T13:43:59.148Z,12.38
2019-02-06T13:45:02.589Z,12.49
2019-02-06T13:46:06.331Z,12.44
2019-02-06T13:47:09.876Z,12.30
2019-02-06T13:48:13.510Z,11.98
2019-02-06T13:49:17.019Z,11.61